Time;durP1;ratioP1;P1;durP2;ratioP2;P2;SDS_P1;SDS_P2;PMS_P1;PMS_P2;Temp;Humidity;BMP_temperature;BMP_pressure;BME280_temperature;BME280_humidity;BME280_pressure;Samples;Min_cycle;Max_cycle;Signal;HPM_P1;HPM_P2
2021/05/25 00:04:38;;;;;;;3.40;0.90;;;;;;;8.87;89.78;100122.72;20859510;28;20041;-72
2021/05/25 00:14:40;;;;;;;2.58;0.80;;;;;;;8.90;86.98;100119.09;20856553;28;20054;-72
2021/05/25 00:24:42;;;;;;;2.92;0.70;;;;;;;8.82;85.98;100113.44;20823192;28;20485;-72
2021/05/25 00:34:44;;;;;;;4.40;0.73;;;;;;;8.94;83.63;100107.56;20822638;28;20045;-72
2021/05/25 00:44:46;;;;;;;5.30;0.77;;;;;;;8.83;82.91;100110.75;20871703;28;20099;-73
2021/05/25 00:54:48;;;;;;;7.18;2.05;;;;;;;8.84;80.29;100104.59;20821580;28;20099;-72
2021/05/25 01:04:49;;;;;;;2.33;0.60;;;;;;;8.89;78.50;100123.47;20819136;28;20041;-72
2021/05/25 01:14:56;;;;;;;5.45;0.90;;;;;;;8.86;76.53;100133.25;20856337;28;20099;-72
2021/05/25 01:24:58;;;;;;;6.45;0.65;;;;;;;8.86;73.87;100128.88;20817346;28;20058;-72
2021/05/25 01:35:00;;;;;;;4.22;0.70;;;;;;;8.84;73.91;100138.53;20816545;28;20100;-72
2021/05/25 01:45:05;;;;;;;1.92;0.60;;;;;;;8.85;73.88;100155.03;20864056;28;20049;-72
2021/05/25 01:55:08;;;;;;;3.03;0.82;;;;;;;8.75;74.06;100156.41;20839737;28;20046;-72
2021/05/25 02:05:10;;;;;;;2.55;0.65;;;;;;;8.74;76.23;100158.19;20832319;28;20520;-72
2021/05/25 02:15:13;;;;;;;4.07;0.70;;;;;;;8.57;76.66;100153.84;20859292;28;20559;-72
2021/05/25 02:25:15;;;;;;;2.75;1.15;;;;;;;8.53;78.29;100164.50;20854027;28;20041;-72
2021/05/25 02:35:16;;;;;;;3.95;0.60;;;;;;;8.55;77.82;100178.28;20914595;28;20037;-72
2021/05/25 02:45:18;;;;;;;3.83;0.77;;;;;;;8.86;75.99;100183.66;20857285;28;20049;-72
2021/05/25 02:55:23;;;;;;;2.92;0.63;;;;;;;9.05;74.92;100196.63;20837759;28;20107;-72
2021/05/25 03:05:25;;;;;;;6.20;0.67;;;;;;;9.06;74.77;100190.47;20844154;28;20556;-72
2021/05/25 03:15:32;;;;;;;3.92;0.70;;;;;;;9.22;74.01;100200.97;20844308;28;20103;-72
2021/05/25 03:25:34;;;;;;;5.28;0.82;;;;;;;9.33;72.88;100215.19;20868507;28;20398;-72
2021/05/25 03:35:36;;;;;;;3.03;0.77;;;;;;;9.33;72.28;100225.63;20906123;28;20080;-72
2021/05/25 03:45:38;;;;;;;4.07;0.80;;;;;;;9.40;71.81;100226.97;20906293;28;20041;-72
2021/05/25 04:05:42;;;;;;;3.33;0.90;;;;;;;9.44;72.40;100230.31;20821475;28;20042;-72
2021/05/25 04:15:47;;;;;;;4.45;0.63;;;;;;;9.50;70.65;100236.97;20840699;28;20049;-72
2021/05/25 04:25:49;;;;;;;;;;;;;;;9.52;70.98;100230.72;20840070;28;20057;-71
2021/05/25 04:35:51;;;;;;;4.63;1.10;;;;;;;9.64;69.98;100235.31;20819004;28;19925;-72
2021/05/25 04:45:52;;;;;;;3.25;1.05;;;;;;;9.67;70.38;100226.47;20892249;28;20684;-72
2021/05/25 04:55:54;;;;;;;4.15;1.00;;;;;;;9.91;68.55;100235.59;20899716;28;20099;-72
2021/05/25 05:05:56;;;;;;;2.53;0.68;;;;;;;9.89;67.52;100250.53;20899057;28;20037;-72
2021/05/25 05:15:57;;;;;;;2.80;0.70;;;;;;;9.95;67.95;100258.06;20838516;28;20054;-72
2021/05/25 05:25:59;;;;;;;2.20;0.90;;;;;;;10.24;67.07;100254.72;20836586;28;20061;-72
2021/05/25 05:36:01;;;;;;;3.38;0.60;;;;;;;10.09;65.14;100270.38;20819516;28;20091;-72
2021/05/25 05:46:03;;;;;;;4.70;0.90;;;;;;;10.27;64.79;100266.78;20836555;28;20049;-72
2021/05/25 05:56:05;;;;;;;4.10;0.68;;;;;;;10.27;68.14;100283.31;20865338;28;20409;-72
2021/05/25 06:06:06;;;;;;;3.30;0.70;;;;;;;10.28;67.02;100299.84;20898787;28;20052;-73
2021/05/25 06:16:09;;;;;;;4.35;1.30;;;;;;;10.04;73.27;100302.00;20876585;28;20099;-71
2021/05/25 06:26:11;;;;;;;3.85;1.17;;;;;;;10.02;75.65;100305.59;20896629;28;20402;-70
2021/05/25 06:36:13;;;;;;;3.30;0.90;;;;;;;10.19;74.81;100316.91;20917327;28;20092;-71
2021/05/25 06:46:15;;;;;;;3.38;1.15;;;;;;;10.35;79.55;100344.84;20909195;28;20051;-70
2021/05/25 06:56:17;;;;;;;5.80;0.90;;;;;;;10.38;80.79;100360.38;20910753;28;20091;-71
2021/05/25 07:06:19;;;;;;;3.58;1.10;;;;;;;9.99;83.60;100364.16;20896448;28;20635;-71
2021/05/25 07:16:21;;;;;;;4.70;1.00;;;;;;;9.99;82.33;100381.63;20895291;28;20091;-70
2021/05/25 07:26:24;;;;;;;5.57;1.25;;;;;;;10.04;84.94;100401.38;20911860;28;20371;-71
2021/05/25 07:36:25;;;;;;;4.97;1.15;;;;;;;10.41;84.67;100420.41;20909592;28;20099;-71
2021/05/25 07:46:27;;;;;;;3.17;1.05;;;;;;;10.79;80.79;100427.03;20908783;28;20094;-71
2021/05/25 07:56:29;;;;;;;4.20;0.90;;;;;;;10.41;77.56;100442.19;20908845;28;20057;-70
2021/05/25 08:06:34;;;;;;;5.20;0.85;;;;;;;10.45;79.97;100458.56;20905398;28;20041;-71
2021/05/25 08:16:38;;;;;;;3.23;1.03;;;;;;;10.63;77.54;100452.34;20892105;28;20044;-70
2021/05/25 08:26:40;;;;;;;9.37;1.13;;;;;;;10.45;77.78;100479.50;20856932;28;20041;-71
2021/05/25 08:36:45;;;;;;;7.20;1.07;;;;;;;10.16;80.90;100510.59;20824728;28;20046;-72
2021/05/25 08:46:47;;;;;;;4.75;0.90;;;;;;;10.27;79.63;100516.13;20884719;28;20071;-68
2021/05/25 08:56:48;;;;;;;8.52;1.13;;;;;;;10.87;79.29;100516.47;20841263;28;20050;-71
2021/05/25 09:06:51;;;;;;;4.00;0.90;;;;;;;11.45;75.42;100515.91;20822359;28;20046;-72
2021/05/25 09:17:16;;;;;;;10.30;1.48;;;;;;;11.41;71.28;100538.00;20888175;28;20471;-72
2021/05/25 09:27:35;;;;;;;6.15;1.20;;;;;;;11.77;68.95;100522.00;20865005;28;20045;-71
2021/05/25 09:37:43;;;;;;;4.20;0.93;;;;;;;12.04;64.14;100514.31;20834353;28;20403;-71
2021/05/25 09:47:53;;;;;;;10.18;2.83;;;;;;;12.02;63.19;100513.56;20837146;28;20045;-71
2021/05/25 09:57:57;;;;;;;7.10;2.13;;;;;;;12.40;60.59;100526.09;20891464;28;20056;-71
2021/05/25 10:08:00;;;;;;;9.93;1.40;;;;;;;12.32;62.18;100520.47;20841021;28;20045;-69
2021/05/25 10:28:25;;;;;;;6.85;0.95;;;;;;;13.20;57.57;100535.25;20911702;28;20113;-70
2021/05/25 10:38:30;;;;;;;3.15;1.10;;;;;;;13.38;57.34;100533.22;20841996;28;20091;-70
2021/05/25 10:48:54;;;;;;;4.78;0.80;;;;;;;14.21;56.13;100533.00;20900245;28;20103;-70
2021/05/25 10:59:05;;;;;;;7.40;1.42;;;;;;;13.47;56.09;100528.22;20915155;28;20094;-70
2021/05/25 11:09:27;;;;;;;5.85;1.38;;;;;;;13.78;54.28;100542.00;20899205;28;20041;-69
2021/05/25 11:19:34;;;;;;;3.97;1.10;;;;;;;14.71;53.36;100539.25;20856512;28;20113;-74
2021/05/25 11:30:00;;;;;;;3.97;0.70;;;;;;;13.69;56.00;100549.56;20855675;28;20090;-70
2021/05/25 11:40:06;;;;;;;4.28;1.42;;;;;;;13.98;55.20;100566.09;20912113;28;20041;-71
2021/05/25 11:50:13;;;;;;;6.45;1.20;;;;;;;13.95;53.30;100552.28;20900797;28;20056;-72
2021/05/25 12:00:36;;;;;;;7.05;1.30;;;;;;;14.89;51.01;100564.31;20872052;28;20041;-72
2021/05/25 12:10:42;;;;;;;3.30;0.80;;;;;;;14.13;51.63;100569.50;20907031;28;20489;-72
2021/05/25 12:20:49;;;;;;;6.57;0.90;;;;;;;15.25;48.09;100548.56;20909115;28;20106;-71
2021/05/25 12:30:53;;;;;;;4.03;1.20;;;;;;;15.03;47.97;100550.22;20909193;28;20049;-72
2021/05/25 12:40:58;;;;;;;29.93;2.90;;;;;;;15.47;47.24;100528.56;20908416;28;20498;-72
2021/05/25 12:51:00;;;;;;;3.00;0.90;;;;;;;15.75;42.61;100515.91;20907655;28;20075;-73
2021/05/25 13:01:34;;;;;;;5.53;1.10;;;;;;;16.23;42.15;100526.41;20883618;28;20048;-73
2021/05/25 13:11:36;;;;;;;3.90;0.80;;;;;;;16.96;43.99;100515.50;20905619;28;20114;-74
2021/05/25 13:21:42;;;;;;;3.72;0.85;;;;;;;15.46;45.68;100537.44;20905843;28;20477;-73
2021/05/25 13:31:44;;;;;;;2.83;0.90;;;;;;;15.16;50.92;100546.59;20878095;28;20117;-74
2021/05/25 13:41:48;;;;;;;6.32;1.13;;;;;;;16.09;45.62;100527.47;20831825;28;20472;-74
2021/05/25 13:51:51;;;;;;;2.77;0.67;;;;;;;16.17;43.19;100525.06;20904372;28;20048;-74
2021/05/25 14:01:53;;;;;;;3.97;0.68;;;;;;;16.37;43.23;100509.50;20878845;28;20540;-73
2021/05/25 14:11:57;;;;;;;3.25;0.70;;;;;;;15.92;43.14;100513.81;20906202;28;20045;-72
2021/05/25 14:21:59;;;;;;;5.83;1.27;;;;;;;16.15;41.80;100503.19;20906335;28;20689;-72
2021/05/25 14:32:01;;;;;;;6.28;0.90;;;;;;;16.37;41.31;100506.88;20882293;28;20291;-72
2021/05/25 14:42:03;;;;;;;6.68;1.20;;;;;;;15.69;47.75;100505.81;20903111;28;20045;-73
2021/05/25 14:52:05;;;;;;;6.43;1.10;;;;;;;16.00;41.52;100479.78;20908163;28;20167;-72
2021/05/25 15:02:13;;;;;;;3.83;0.80;;;;;;;16.20;40.99;100473.84;20892678;28;20045;-72
2021/05/25 15:12:15;;;;;;;3.42;0.65;;;;;;;16.05;41.86;100457.31;20914660;28;20173;-73
2021/05/25 15:22:17;;;;;;;3.65;0.90;;;;;;;16.90;40.89;100445.41;20914911;28;20099;-73
2021/05/25 15:32:19;;;;;;;3.08;0.68;;;;;;;17.16;39.30;100432.75;20885054;28;20041;-72
2021/05/25 15:42:20;;;;;;;6.13;0.90;;;;;;;17.29;37.68;100441.34;20838017;28;20049;-74
2021/05/25 15:52:22;;;;;;;5.30;0.77;;;;;;;16.52;38.29;100429.91;20829816;28;20053;-74
2021/05/25 16:02:24;;;;;;;3.53;0.80;;;;;;;17.21;36.83;100443.78;20867495;28;20041;-74
2021/05/25 16:12:26;;;;;;;5.57;0.70;;;;;;;16.85;37.78;100442.31;20910798;28;20044;-74
2021/05/25 16:22:27;;;;;;;5.43;1.23;;;;;;;17.22;36.54;100455.22;20909940;28;20045;-74
2021/05/25 16:32:29;;;;;;;4.22;0.90;;;;;;;17.51;36.30;100435.16;20880675;28;20040;-74
2021/05/25 16:42:31;;;;;;;4.07;0.70;;;;;;;16.90;34.89;100426.06;20831765;28;20485;-73
2021/05/25 16:52:40;;;;;;;4.20;0.85;;;;;;;16.41;35.92;100421.97;20825442;28;20050;-73
2021/05/25 17:02:50;;;;;;;6.60;0.70;;;;;;;15.97;36.58;100441.25;20866110;28;20497;-73
2021/05/25 17:22:57;;;;;;;4.57;1.00;;;;;;;15.35;38.21;100436.19;20897938;28;20045;-73
2021/05/25 17:32:58;;;;;;;4.72;0.90;;;;;;;15.20;38.76;100447.84;20880240;28;20057;-73
2021/05/25 17:43:00;;;;;;;2.13;0.68;;;;;;;15.08;39.75;100443.47;20844789;28;20100;-73
2021/05/25 17:53:03;;;;;;;5.05;0.80;;;;;;;15.48;39.39;100457.25;20853558;28;20079;-73
2021/05/25 18:03:05;;;;;;;4.70;0.73;;;;;;;15.44;38.60;100454.94;20892651;28;20115;-73
2021/05/25 18:13:07;;;;;;;3.67;0.80;;;;;;;15.35;38.87;100446.72;20901044;28;20056;-72
2021/05/25 18:23:08;;;;;;;3.55;0.90;;;;;;;15.11;39.48;100455.59;20822039;28;20053;-73
2021/05/25 18:33:16;;;;;;;4.15;0.80;;;;;;;14.73;39.23;100463.59;20888174;28;20053;-73
2021/05/25 18:43:19;;;;;;;3.50;0.82;;;;;;;14.61;40.79;100467.94;20904696;28;20107;-72
2021/05/25 18:53:21;;;;;;;3.90;0.80;;;;;;;14.55;40.16;100478.88;20881368;28;20095;-72
2021/05/25 19:03:23;;;;;;;3.03;0.85;;;;;;;14.41;41.36;100479.00;20898137;28;20495;-72
2021/05/25 19:13:25;;;;;;;4.97;0.98;;;;;;;14.36;42.18;100481.94;20899433;28;20045;-72
2021/05/25 19:23:30;;;;;;;4.80;0.88;;;;;;;14.20;42.90;100491.81;20886515;28;20037;-73
2021/05/25 19:33:32;;;;;;;4.30;1.13;;;;;;;14.01;43.38;100501.88;20866923;28;20096;-74
2021/05/25 19:43:35;;;;;;;6.82;1.73;;;;;;;13.97;43.93;100513.53;20846790;28;20501;-75
2021/05/25 19:53:38;;;;;;;6.07;2.22;;;;;;;13.78;44.54;100534.97;20844765;28;20045;-75
2021/05/25 20:03:39;;;;;;;3.38;1.20;;;;;;;13.55;46.04;100536.47;20871842;28;20544;-74
2021/05/25 20:13:41;;;;;;;3.88;1.08;;;;;;;13.41;46.57;100527.78;20910176;28;20045;-73
2021/05/25 20:23:42;;;;;;;6.28;1.10;;;;;;;13.36;47.12;100535.94;20869015;28;20049;-74
2021/05/25 20:43:53;;;;;;;4.72;1.08;;;;;;;13.16;48.11;100541.59;20825552;28;20490;-74
2021/05/25 20:53:55;;;;;;;5.80;1.77;;;;;;;13.02;49.66;100539.81;20872410;28;20057;-74
2021/05/25 21:03:56;;;;;;;7.95;1.90;;;;;;;12.94;49.98;100549.13;20879476;28;20037;-73
2021/05/25 21:13:58;;;;;;;5.50;1.27;;;;;;;12.83;52.17;100534.84;20884609;28;20048;-73
2021/05/25 21:23:59;;;;;;;3.80;1.33;;;;;;;12.76;52.44;100525.66;20882284;28;20044;-73
2021/05/25 21:34:01;;;;;;;7.50;1.77;;;;;;;12.62;52.74;100522.19;20890223;28;20111;-74
2021/05/25 21:44:05;;;;;;;4.85;1.38;;;;;;;12.55;53.17;100524.31;20895514;28;20045;-73
2021/05/25 21:54:06;;;;;;;4.65;0.90;;;;;;;12.20;54.76;100512.47;20865134;28;20053;-74
2021/05/25 22:04:08;;;;;;;4.10;1.00;;;;;;;12.21;55.04;100506.28;20902681;28;20040;-74
2021/05/25 22:14:11;;;;;;;3.25;0.80;;;;;;;12.16;55.70;100511.81;20916193;28;20484;-74
2021/05/25 22:24:13;;;;;;;6.35;1.50;;;;;;;12.33;56.03;100509.03;20874030;28;20045;-74
2021/05/25 22:34:14;;;;;;;3.88;1.10;;;;;;;12.07;57.67;100493.13;20896290;28;20041;-75
2021/05/25 22:44:16;;;;;;;4.13;1.42;;;;;;;12.02;58.55;100482.06;20897476;28;20497;-75
2021/05/25 22:54:18;;;;;;;4.38;0.93;;;;;;;11.83;60.05;100477.91;20910920;28;20541;-75
2021/05/25 23:04:20;;;;;;;3.80;1.50;;;;;;;11.71;61.01;100465.47;20891218;28;20050;-75
2021/05/25 23:14:22;;;;;;;3.22;1.10;;;;;;;11.64;62.47;100461.50;20889865;28;20041;-75
2021/05/25 23:24:24;;;;;;;4.40;1.20;;;;;;;11.58;61.80;100446.13;20877979;28;20048;-75
2021/05/25 23:34:26;;;;;;;5.07;1.40;;;;;;;11.58;63.86;100443.50;20899403;28;20066;-75
2021/05/25 23:44:28;;;;;;;6.25;1.92;;;;;;;11.56;63.31;100427.88;20879228;28;20451;-75
2021/05/25 23:54:30;;;;;;;6.57;1.50;;;;;;;11.55;63.62;100417.47;20884380;28;20037;-72
